Time;durP1;ratioP1;P1;durP2;ratioP2;P2;SDS_P1;SDS_P2;PMS_P1;PMS_P2;Temp;Humidity;BMP_temperature;BMP_pressure;BME280_temperature;BME280_humidity;BME280_pressure;Samples;Min_cycle;Max_cycle;Signal;HPM_P1;HPM_P2
2022/01/06 00:01:02;;;;;;;19.13;8.80;;;13.10;99.90;;;;;;5102416;28;20047;-67
2022/01/06 00:03:31;;;;;;;26.08;9.85;;;13.10;99.90;;;;;;5101402;28;20034;-67
2022/01/06 00:06:04;;;;;;;26.30;8.43;;;13.10;99.90;;;;;;5093765;28;20385;-67
2022/01/06 00:08:34;;;;;;;33.40;10.55;;;13.10;99.90;;;;;;5095248;28;20044;-67
2022/01/06 00:11:03;;;;;;;36.38;13.90;;;13.00;99.90;;;;;;5110480;28;20071;-67
2022/01/06 00:13:43;;;;;;;34.90;12.32;;;13.00;99.90;;;;;;5112728;28;20059;-67
2022/01/06 00:24:36;;;;;;;26.33;10.57;;;12.90;99.90;;;;;;5091358;27;20061;-67
2022/01/06 00:27:04;;;;;;;29.23;10.13;;;12.90;99.90;;;;;;5108452;28;20039;-67
2022/01/06 00:29:32;;;;;;;22.23;8.15;;;12.80;99.90;;;;;;5057386;28;20485;-67
2022/01/06 00:32:00;;;;;;;26.52;9.57;;;12.80;99.90;;;;;;5107887;28;20062;-67
2022/01/06 00:34:28;;;;;;;33.25;10.00;;;12.70;99.90;;;;;;5091680;28;20528;-67
2022/01/06 00:36:55;;;;;;;20.92;8.48;;;12.70;99.90;;;;;;5113525;28;20039;-67
2022/01/06 00:39:27;;;;;;;19.90;8.35;;;12.70;99.90;;;;;;5108375;28;20485;-67
2022/01/06 00:42:01;;;;;;;26.42;8.15;;;12.60;99.90;;;;;;5104517;28;20043;-67
2022/01/06 00:44:28;;;;;;;24.95;10.10;;;12.60;99.90;;;;;;5104548;28;20063;-67
2022/01/06 00:46:56;;;;;;;28.17;10.73;;;12.60;99.90;;;;;;5090216;28;20036;-67
2022/01/06 00:49:23;;;;;;;31.15;9.85;;;12.60;99.90;;;;;;5055475;28;20076;-67
2022/01/06 00:51:51;;;;;;;26.20;10.63;;;12.60;99.90;;;;;;5078082;28;20039;-67
2022/01/06 00:54:18;;;;;;;30.80;11.48;;;12.50;99.90;;;;;;5111214;28;20409;-67
2022/01/06 00:56:46;;;;;;;27.70;10.45;;;12.50;99.90;;;;;;5092307;28;20044;-67
2022/01/06 00:59:13;;;;;;;29.55;11.35;;;12.50;99.90;;;;;;5090198;28;20482;-67
2022/01/06 01:01:41;;;;;;;18.10;9.82;;;12.40;99.90;;;;;;5091951;28;20093;-67
2022/01/06 01:04:08;;;;;;;24.10;10.00;;;12.50;99.90;;;;;;5095190;28;20101;-67
2022/01/06 01:06:36;;;;;;;22.25;9.82;;;12.40;99.90;;;;;;5093824;28;20031;-67
2022/01/06 01:09:03;;;;;;;23.67;10.60;;;12.40;99.90;;;;;;5093840;28;20063;-67
2022/01/06 01:11:31;;;;;;;21.73;9.82;;;12.40;99.90;;;;;;5073341;28;20040;-67
2022/01/06 01:14:16;;;;;;;23.10;9.38;;;12.40;99.90;;;;;;5110851;28;20159;-67
2022/01/06 01:16:54;;;;;;;23.45;8.88;;;12.40;99.90;;;;;;5110278;28;20040;-67
2022/01/06 01:19:22;;;;;;;28.73;9.48;;;12.30;99.90;;;;;;5113287;28;20044;-67
2022/01/06 01:21:50;;;;;;;18.45;9.30;;;12.30;99.90;;;;;;5093402;28;20044;-67
2022/01/06 01:24:18;;;;;;;22.63;8.32;;;12.30;99.90;;;;;;5093366;28;20040;-67
2022/01/06 01:26:46;;;;;;;29.35;10.02;;;12.20;99.90;;;;;;5076602;28;20032;-67
2022/01/06 01:29:16;;;;;;;24.67;9.07;;;12.20;99.90;;;;;;5089252;28;20051;-67
2022/01/06 01:31:52;;;;;;;20.80;9.80;;;12.20;99.90;;;;;;5108864;28;20051;-66
2022/01/06 01:34:24;;;;;;;22.13;9.50;;;12.20;99.90;;;;;;5112793;28;20403;-67
2022/01/06 01:36:55;;;;;;;28.20;10.18;;;12.20;99.90;;;;;;5107690;28;20042;-67
2022/01/06 01:39:23;;;;;;;28.95;9.27;;;12.20;99.90;;;;;;5105171;28;20061;-67
2022/01/06 01:41:51;;;;;;;25.15;9.45;;;12.20;99.90;;;;;;5105650;28;20089;-67
2022/01/06 01:44:20;;;;;;;15.35;7.88;;;12.20;99.90;;;;;;5105450;28;20043;-67
2022/01/06 01:47:01;;;;;;;21.30;9.65;;;12.20;99.90;;;;;;5108720;28;20363;-67
2022/01/06 01:49:43;;;;;;;16.83;8.20;;;12.20;99.90;;;;;;5107334;28;20392;-67
2022/01/06 01:52:11;;;;;;;22.40;7.45;;;12.20;99.90;;;;;;5087650;28;20081;-67
2022/01/06 01:54:38;;;;;;;19.60;7.97;;;12.20;99.90;;;;;;5111400;28;20073;-67
2022/01/06 01:57:06;;;;;;;20.35;8.57;;;12.10;99.90;;;;;;5102608;28;20032;-67
2022/01/06 01:59:33;;;;;;;14.45;8.50;;;12.10;99.90;;;;;;5086811;28;20046;-67
2022/01/06 02:02:01;;;;;;;17.70;7.13;;;12.10;99.90;;;;;;5072492;28;20044;-67
2022/01/06 02:04:29;;;;;;;26.10;10.93;;;12.10;99.90;;;;;;5104678;28;20188;-67
2022/01/06 02:06:56;;;;;;;13.20;7.95;;;12.10;99.90;;;;;;5082171;28;20052;-67
2022/01/06 02:09:23;;;;;;;14.70;6.80;;;12.10;99.90;;;;;;5076949;28;20039;-67
2022/01/06 02:11:51;;;;;;;19.05;8.63;;;12.00;99.90;;;;;;5110881;28;20040;-67
2022/01/06 02:14:18;;;;;;;16.73;7.20;;;12.10;99.90;;;;;;5108489;28;20122;-67
2022/01/06 02:16:46;;;;;;;18.83;8.77;;;12.10;99.90;;;;;;5108774;28;20056;-67
2022/01/06 02:19:13;;;;;;;23.17;8.77;;;12.00;99.90;;;;;;5091662;28;20063;-67
2022/01/06 02:21:41;;;;;;;12.90;7.65;;;12.00;99.90;;;;;;5108459;28;20092;-67
2022/01/06 02:24:09;;;;;;;18.15;8.93;;;12.00;99.90;;;;;;5092525;28;20481;-67
2022/01/06 02:26:36;;;;;;;18.67;8.60;;;12.00;99.90;;;;;;5096730;28;20046;-66
2022/01/06 02:29:04;;;;;;;21.30;8.80;;;12.00;99.90;;;;;;5110542;28;20044;-67
2022/01/06 02:31:43;;;;;;;18.60;8.57;;;12.00;99.90;;;;;;5111839;28;20054;-66
2022/01/06 02:34:11;;;;;;;14.38;7.15;;;12.00;99.90;;;;;;5110348;27;20087;-67
2022/01/06 02:36:38;;;;;;;14.10;7.55;;;12.00;99.90;;;;;;5105654;28;20047;-67
2022/01/06 02:39:06;;;;;;;15.38;7.35;;;11.90;99.90;;;;;;5121025;27;20045;-67
2022/01/06 02:41:33;;;;;;;17.17;8.05;;;12.00;99.90;;;;;;5123072;27;20052;-67
2022/01/06 02:44:03;;;;;;;14.88;7.25;;;12.00;99.90;;;;;;5098717;28;20134;-67
2022/01/06 02:46:30;;;;;;;17.73;7.55;;;12.00;99.90;;;;;;5099025;28;20551;-67
2022/01/06 02:48:58;;;;;;;26.60;8.48;;;11.90;99.90;;;;;;5065297;28;20108;-66
2022/01/06 02:51:25;;;;;;;17.70;8.30;;;12.00;99.90;;;;;;5097519;28;20040;-67
2022/01/06 02:53:53;;;;;;;18.10;9.30;;;12.00;99.90;;;;;;5100881;27;20514;-67
2022/01/06 02:56:20;;;;;;;20.25;10.38;;;12.00;99.90;;;;;;5119153;27;20068;-67
2022/01/06 02:58:48;;;;;;;15.63;7.97;;;12.00;99.90;;;;;;5119140;27;20043;-67
2022/01/06 03:01:15;;;;;;;18.05;7.63;;;12.10;99.90;;;;;;5119160;27;20035;-67
2022/01/06 03:03:43;;;;;;;16.92;8.05;;;12.10;99.90;;;;;;5118731;27;20043;-67
2022/01/06 03:06:10;;;;;;;17.75;9.65;;;12.10;99.90;;;;;;5137245;27;20039;-67
2022/01/06 03:08:38;;;;;;;14.85;8.60;;;12.20;99.90;;;;;;5119098;27;20035;-67
2022/01/06 03:11:07;;;;;;;28.08;8.95;;;12.20;99.90;;;;;;5137035;27;20044;-67
2022/01/06 03:13:35;;;;;;;22.65;7.47;;;12.30;99.90;;;;;;5137000;27;20130;-67
2022/01/06 03:16:03;;;;;;;22.33;8.05;;;12.40;99.90;;;;;;5102264;27;20092;-67
2022/01/06 03:18:31;;;;;;;26.85;10.07;;;12.40;99.90;;;;;;5118755;27;20092;-67
2022/01/06 03:20:58;;;;;;;20.63;6.95;;;12.40;99.90;;;;;;5118821;27;20064;-67
2022/01/06 03:23:26;;;;;;;16.08;6.22;;;12.50;99.90;;;;;;5118707;27;20046;-67
2022/01/06 03:25:53;;;;;;;19.08;7.80;;;12.50;99.90;;;;;;5118577;27;20166;-67
2022/01/06 03:28:21;;;;;;;18.88;8.05;;;12.50;99.90;;;;;;5136692;27;20043;-67
2022/01/06 03:30:48;;;;;;;20.48;7.18;;;12.50;99.90;;;;;;5136568;27;20489;-67
2022/01/06 03:33:16;;;;;;;13.13;7.32;;;12.50;99.90;;;;;;5118603;27;20138;-67
2022/01/06 03:35:44;;;;;;;19.55;7.97;;;12.60;99.90;;;;;;5118631;27;20042;-67
2022/01/06 03:38:11;;;;;;;16.88;7.35;;;12.60;99.90;;;;;;5101547;27;20042;-67
2022/01/06 03:40:40;;;;;;;14.07;6.85;;;12.60;99.90;;;;;;5136657;27;20042;-67
2022/01/06 03:43:08;;;;;;;17.60;7.00;;;12.60;99.90;;;;;;5136673;27;20074;-67
2022/01/06 03:45:36;;;;;;;19.95;6.20;;;12.50;99.90;;;;;;5084630;27;20051;-67
2022/01/06 03:48:04;;;;;;;24.17;7.65;;;12.50;99.90;;;;;;5136566;27;20043;-67
2022/01/06 03:50:32;;;;;;;14.07;6.60;;;12.50;99.90;;;;;;5117900;27;20096;-67
2022/01/06 03:52:59;;;;;;;19.20;6.88;;;12.50;99.90;;;;;;5136281;27;20043;-67
2022/01/06 03:55:27;;;;;;;22.80;8.35;;;12.50;99.90;;;;;;5117257;27;20043;-67
2022/01/06 03:57:54;;;;;;;21.88;7.28;;;12.50;99.90;;;;;;5136067;27;20480;-67
2022/01/06 04:00:22;;;;;;;12.60;6.00;;;12.50;99.90;;;;;;5101113;27;20090;-67
2022/01/06 04:02:51;;;;;;;14.80;7.38;;;12.50;99.90;;;;;;5136120;27;20460;-67
2022/01/06 04:05:19;;;;;;;15.38;7.60;;;12.40;99.90;;;;;;5117866;27;20035;-67
2022/01/06 04:07:46;;;;;;;17.75;7.35;;;12.50;99.90;;;;;;5135940;27;20039;-67
2022/01/06 04:10:14;;;;;;;21.95;7.82;;;12.50;99.90;;;;;;5117888;27;20065;-67
2022/01/06 04:12:42;;;;;;;33.60;8.25;;;12.60;99.90;;;;;;5117768;27;20079;-67
2022/01/06 04:15:12;;;;;;;13.65;7.13;;;12.50;99.90;;;;;;5117905;27;20042;-67
2022/01/06 04:17:41;;;;;;;13.27;5.32;;;12.50;99.90;;;;;;5135855;27;20066;-67
2022/01/06 04:20:10;;;;;;;18.58;7.35;;;12.50;99.90;;;;;;5135715;27;20039;-67
2022/01/06 04:22:38;;;;;;;12.18;6.35;;;12.50;99.90;;;;;;5135664;27;20039;-67
2022/01/06 04:25:06;;;;;;;17.45;6.78;;;12.40;99.90;;;;;;5117390;27;20160;-67
2022/01/06 04:27:34;;;;;;;17.95;7.28;;;12.40;99.90;;;;;;5135596;27;20080;-67
2022/01/06 04:30:03;;;;;;;17.05;6.68;;;12.40;99.90;;;;;;5135608;27;20043;-67
2022/01/06 04:32:30;;;;;;;15.07;6.78;;;12.30;99.90;;;;;;5117382;27;20049;-67
2022/01/06 04:34:58;;;;;;;24.55;7.15;;;12.30;99.90;;;;;;5100325;27;20039;-67
2022/01/06 04:37:27;;;;;;;21.52;7.70;;;12.30;99.90;;;;;;5100711;27;20378;-67
2022/01/06 04:39:55;;;;;;;18.10;8.15;;;12.30;99.90;;;;;;5135312;27;20043;-67
2022/01/06 04:42:22;;;;;;;30.63;8.13;;;12.30;99.90;;;;;;5116658;27;20051;-67
2022/01/06 04:44:50;;;;;;;24.08;9.05;;;12.20;99.90;;;;;;5117327;27;20078;-67
2022/01/06 04:47:17;;;;;;;15.65;6.72;;;12.20;99.90;;;;;;5135349;27;20035;-67
2022/01/06 04:49:45;;;;;;;27.17;7.85;;;12.20;99.90;;;;;;5117007;27;20051;-67
2022/01/06 04:52:12;;;;;;;24.90;9.38;;;12.20;99.90;;;;;;5100327;27;20043;-67
2022/01/06 04:54:40;;;;;;;13.40;6.75;;;12.20;99.90;;;;;;5135138;27;20039;-67
2022/01/06 04:57:08;;;;;;;19.88;7.30;;;12.20;99.90;;;;;;5100130;27;20047;-67
2022/01/06 04:59:36;;;;;;;22.25;8.38;;;12.30;99.90;;;;;;5116756;27;20108;-66
2022/01/06 05:02:04;;;;;;;21.15;7.90;;;12.30;99.90;;;;;;5116628;27;20439;-66
2022/01/06 05:04:32;;;;;;;20.50;8.05;;;12.30;99.90;;;;;;5134871;27;20057;-67
2022/01/06 05:06:59;;;;;;;33.70;10.00;;;12.40;99.90;;;;;;5116921;27;20515;-67
2022/01/06 05:09:27;;;;;;;26.08;7.43;;;12.40;99.90;;;;;;5099986;27;20138;-67
2022/01/06 05:11:55;;;;;;;22.08;8.93;;;12.50;99.90;;;;;;5116464;27;20047;-67
2022/01/06 05:14:22;;;;;;;19.33;7.03;;;12.50;99.90;;;;;;5116322;27;20489;-66
2022/01/06 05:16:50;;;;;;;12.52;7.15;;;12.50;99.90;;;;;;5116566;27;20077;-66
2022/01/06 05:19:17;;;;;;;33.85;9.00;;;12.60;99.90;;;;;;5134679;27;20035;-66
2022/01/06 05:21:45;;;;;;;22.05;9.57;;;12.60;99.90;;;;;;5116368;27;20046;-67
2022/01/06 05:24:15;;;;;;;17.77;7.38;;;12.60;99.90;;;;;;5116420;28;20043;-66
2022/01/06 05:26:43;;;;;;;19.08;6.65;;;12.60;99.90;;;;;;5116304;27;20039;-66
2022/01/06 05:29:12;;;;;;;17.33;8.52;;;12.60;99.90;;;;;;5134665;27;20043;-67
2022/01/06 05:31:40;;;;;;;18.58;6.93;;;12.60;99.90;;;;;;5134597;27;20039;-67
2022/01/06 05:34:08;;;;;;;15.07;7.15;;;12.70;99.90;;;;;;5134650;27;20038;-66
2022/01/06 05:36:37;;;;;;;22.35;6.72;;;12.60;99.90;;;;;;5099502;28;20485;-67
2022/01/06 05:39:05;;;;;;;26.42;8.00;;;12.60;99.90;;;;;;5116443;28;20055;-66
2022/01/06 05:41:33;;;;;;;25.23;8.80;;;12.70;99.90;;;;;;5116089;28;20468;-66
2022/01/06 05:44:01;;;;;;;15.65;7.45;;;12.70;99.90;;;;;;5134329;28;20039;-67
2022/01/06 05:46:29;;;;;;;18.55;6.53;;;12.60;99.90;;;;;;5134333;28;20108;-66
2022/01/06 05:48:56;;;;;;;22.23;8.75;;;12.60;99.90;;;;;;5115946;28;20043;-67
2022/01/06 05:51:23;;;;;;;20.25;6.95;;;12.60;99.90;;;;;;5134473;28;20039;-67
2022/01/06 05:53:53;;;;;;;14.75;6.05;;;12.60;99.90;;;;;;5120670;27;20043;-67
2022/01/06 05:56:21;;;;;;;13.27;6.20;;;12.60;99.90;;;;;;5103493;27;20047;-67
2022/01/06 05:58:48;;;;;;;15.75;7.10;;;12.60;99.90;;;;;;5138486;27;20123;-67
2022/01/06 06:01:16;;;;;;;17.38;7.15;;;12.60;99.90;;;;;;5138643;27;20105;-67
2022/01/06 06:03:44;;;;;;;13.73;6.13;;;12.50;99.90;;;;;;5120226;27;20040;-67
2022/01/06 06:06:11;;;;;;;24.73;7.07;;;12.60;99.90;;;;;;5138535;27;20553;-67
2022/01/06 06:08:38;;;;;;;11.40;5.93;;;12.50;99.90;;;;;;5138497;27;20075;-67
2022/01/06 06:11:07;;;;;;;19.17;5.60;;;12.50;99.90;;;;;;5120213;27;20107;-67
2022/01/06 06:13:34;;;;;;;13.18;5.05;;;12.50;99.90;;;;;;5138127;27;20051;-66
2022/01/06 06:16:02;;;;;;;17.58;6.55;;;12.60;99.90;;;;;;5138482;27;20070;-67
2022/01/06 06:18:29;;;;;;;9.05;5.10;;;12.50;99.90;;;;;;5120204;27;20038;-67
2022/01/06 06:20:57;;;;;;;13.48;5.82;;;12.60;99.90;;;;;;5129932;27;20489;-67
2022/01/06 06:23:25;;;;;;;18.00;5.30;;;12.50;99.90;;;;;;5138231;27;20092;-67
2022/01/06 06:25:52;;;;;;;14.45;6.50;;;12.60;99.90;;;;;;5137950;27;20386;-67
2022/01/06 06:28:20;;;;;;;17.60;7.80;;;12.70;99.90;;;;;;5119710;27;20074;-66
2022/01/06 06:30:47;;;;;;;18.73;6.20;;;12.90;99.90;;;;;;5137850;27;20485;-67
2022/01/06 06:33:15;;;;;;;14.45;5.80;;;13.00;99.90;;;;;;5119664;27;20055;-67
2022/01/06 06:35:43;;;;;;;21.10;8.00;;;13.20;99.90;;;;;;5102776;27;20481;-67
2022/01/06 06:38:10;;;;;;;17.30;6.97;;;13.30;99.90;;;;;;5102525;27;20495;-67
2022/01/06 06:40:38;;;;;;;12.43;5.25;;;13.60;99.90;;;;;;5085597;27;20051;-67
2022/01/06 06:43:05;;;;;;;14.75;5.85;;;13.90;99.90;;;;;;5137536;27;20050;-67
2022/01/06 06:45:33;;;;;;;20.45;5.72;;;14.20;99.90;;;;;;5119605;27;20051;-67
2022/01/06 06:48:00;;;;;;;16.23;6.20;;;14.50;99.90;;;;;;5119454;27;20119;-67
2022/01/06 06:50:28;;;;;;;11.95;4.80;;;14.90;99.90;;;;;;5118841;27;20097;-67
2022/01/06 06:52:55;;;;;;;12.10;4.57;;;15.20;99.90;;;;;;5137535;27;20050;-67
2022/01/06 06:55:23;;;;;;;10.35;5.13;;;15.30;99.90;;;;;;5102096;27;20059;-67
2022/01/06 06:57:50;;;;;;;20.23;6.82;;;15.10;99.90;;;;;;5119166;27;20517;-67
2022/01/06 07:00:18;;;;;;;9.95;4.55;;;15.10;99.90;;;;;;5119422;27;20370;-67
2022/01/06 07:02:46;;;;;;;13.10;5.40;;;15.00;99.90;;;;;;5119269;27;20043;-67
2022/01/06 07:05:15;;;;;;;21.25;5.03;;;14.90;99.90;;;;;;5118531;27;20489;-67
2022/01/06 07:07:44;;;;;;;14.05;4.85;;;14.90;99.90;;;;;;5101542;27;20043;-67
2022/01/06 07:10:12;;;;;;;9.13;4.70;;;15.00;99.90;;;;;;5137032;27;20502;-67
2022/01/06 07:12:44;;;;;;;8.52;5.15;;;14.90;99.90;;;;;;5137132;27;20043;-67
2022/01/06 07:15:14;;;;;;;19.52;6.53;;;14.70;99.90;;;;;;5137388;27;20039;-67
2022/01/06 07:17:42;;;;;;;13.40;5.15;;;14.50;99.90;;;;;;5119063;27;20043;-67
2022/01/06 07:20:11;;;;;;;12.13;6.55;;;14.30;99.90;;;;;;5118677;27;20039;-67
2022/01/06 07:22:39;;;;;;;16.73;5.22;;;14.30;99.90;;;;;;5117828;27;20486;-67
2022/01/06 07:25:07;;;;;;;18.58;6.97;;;14.50;99.90;;;;;;5136997;27;20047;-67
2022/01/06 07:27:34;;;;;;;13.00;5.07;;;14.90;99.90;;;;;;5136970;27;20035;-67
2022/01/06 07:30:04;;;;;;;23.55;5.90;;;15.50;99.90;;;;;;5136768;27;20031;-67
2022/01/06 07:32:32;;;;;;;11.32;5.30;;;15.80;99.90;;;;;;5118480;27;20043;-67
2022/01/06 07:35:00;;;;;;;13.07;5.03;;;15.80;99.90;;;;;;5118483;27;20043;-67
2022/01/06 07:37:27;;;;;;;12.75;6.50;;;16.00;99.90;;;;;;5136450;27;20039;-67
2022/01/06 07:39:55;;;;;;;17.13;5.53;;;16.10;99.90;;;;;;5101480;27;20062;-67
2022/01/06 07:42:23;;;;;;;12.27;4.72;;;16.50;99.90;;;;;;5101128;27;20071;-67
2022/01/06 07:44:50;;;;;;;16.35;4.78;;;16.80;99.90;;;;;;5117995;27;20129;-67
2022/01/06 07:47:19;;;;;;;10.45;6.13;;;17.20;99.90;;;;;;5117890;27;20480;-67
2022/01/06 07:49:46;;;;;;;9.63;4.15;;;17.70;99.90;;;;;;5090319;27;20051;-67
2022/01/06 07:52:14;;;;;;;12.65;5.00;;;18.00;99.90;;;;;;5112018;27;20093;-67
2022/01/06 07:54:42;;;;;;;13.63;4.38;;;17.60;99.90;;;;;;5082815;28;20031;-67
2022/01/06 07:57:10;;;;;;;13.95;5.68;;;17.60;99.90;;;;;;5085984;28;20043;-68
2022/01/06 07:59:38;;;;;;;20.58;4.78;;;17.50;99.90;;;;;;5087426;28;20040;-67
2022/01/06 08:02:07;;;;;;;13.68;4.50;;;17.00;99.90;;;;;;5086163;28;20051;-67
2022/01/06 08:04:36;;;;;;;14.05;5.35;;;16.70;99.90;;;;;;5067186;28;20043;-67
2022/01/06 08:07:05;;;;;;;18.10;7.65;;;16.80;99.90;;;;;;5102480;28;20410;-67
2022/01/06 08:09:33;;;;;;;21.88;5.53;;;16.60;99.90;;;;;;5093102;28;20040;-67
2022/01/06 08:12:01;;;;;;;11.35;4.97;;;16.60;99.90;;;;;;5092209;28;20562;-67
2022/01/06 08:14:31;;;;;;;12.85;4.53;;;16.40;99.90;;;;;;5108390;28;20164;-67
2022/01/06 08:17:00;;;;;;;11.30;5.13;;;16.60;99.90;;;;;;5106680;28;20035;-66
2022/01/06 08:19:28;;;;;;;15.45;6.00;;;16.50;99.90;;;;;;5074837;28;20040;-65
2022/01/06 08:21:56;;;;;;;17.80;4.70;;;16.50;99.90;;;;;;5065770;28;20048;-65
2022/01/06 08:24:24;;;;;;;12.10;6.45;;;16.50;99.90;;;;;;5067976;28;20041;-67
2022/01/06 08:26:52;;;;;;;10.45;4.75;;;16.50;99.90;;;;;;5095180;28;20051;-67
2022/01/06 08:29:19;;;;;;;13.57;5.40;;;16.40;99.90;;;;;;5075392;28;20051;-67
2022/01/06 08:31:47;;;;;;;13.95;5.50;;;16.40;99.90;;;;;;5075256;28;20051;-67
2022/01/06 08:34:14;;;;;;;15.32;5.75;;;16.40;99.90;;;;;;5093449;28;20429;-67
2022/01/06 08:36:42;;;;;;;14.68;7.15;;;16.40;99.90;;;;;;5074627;28;20146;-67
2022/01/06 08:39:10;;;;;;;19.55;8.60;;;16.10;99.90;;;;;;5093526;28;20044;-67
2022/01/06 08:41:39;;;;;;;13.70;8.15;;;16.20;99.90;;;;;;5093081;28;20115;-67
2022/01/06 08:44:06;;;;;;;16.27;7.40;;;16.10;99.90;;;;;;5075389;28;20486;-67
2022/01/06 08:46:34;;;;;;;18.10;6.80;;;16.10;99.90;;;;;;5105781;28;20135;-67
2022/01/06 08:49:02;;;;;;;19.55;8.00;;;16.10;99.90;;;;;;5092071;28;20046;-67
2022/01/06 08:51:30;;;;;;;13.35;6.07;;;15.90;99.90;;;;;;5101498;28;20047;-67
2022/01/06 08:53:57;;;;;;;18.35;5.70;;;16.00;99.90;;;;;;5108542;28;20126;-67
2022/01/06 08:56:25;;;;;;;21.45;8.52;;;16.10;99.90;;;;;;5091801;28;20044;-68
2022/01/06 08:58:55;;;;;;;15.60;8.07;;;16.20;99.90;;;;;;5086619;28;20044;-67
2022/01/06 09:01:22;;;;;;;22.05;6.88;;;16.20;99.90;;;;;;5093518;28;20042;-67
2022/01/06 09:03:50;;;;;;;13.48;6.82;;;16.30;99.90;;;;;;5102278;28;20059;-67
2022/01/06 09:06:20;;;;;;;12.90;5.90;;;16.30;99.90;;;;;;5111133;28;20451;-67
2022/01/06 09:08:47;;;;;;;16.77;5.60;;;16.30;99.90;;;;;;5098369;28;20551;-67
2022/01/06 09:11:16;;;;;;;12.82;6.75;;;16.40;99.90;;;;;;5103042;28;20036;-67
2022/01/06 09:13:44;;;;;;;15.73;5.50;;;16.40;99.90;;;;;;5065392;28;20060;-67
2022/01/06 09:16:13;;;;;;;16.45;7.10;;;16.40;99.90;;;;;;5082445;28;20039;-67
2022/01/06 09:18:41;;;;;;;15.40;4.50;;;16.50;99.90;;;;;;5099827;28;20071;-66
2022/01/06 09:21:10;;;;;;;11.73;5.50;;;16.60;99.90;;;;;;5089780;28;20038;-65
2022/01/06 09:23:37;;;;;;;9.18;5.05;;;16.80;99.90;;;;;;5100904;28;20059;-64
2022/01/06 09:26:05;;;;;;;13.35;5.40;;;16.50;99.90;;;;;;5087817;28;20055;-64
2022/01/06 09:28:35;;;;;;;13.73;5.22;;;16.30;99.90;;;;;;5110797;28;20036;-64
2022/01/06 09:31:02;;;;;;;11.68;5.97;;;16.30;99.90;;;;;;5110857;28;20044;-65
2022/01/06 09:33:30;;;;;;;14.13;5.18;;;16.40;99.90;;;;;;5092678;28;20063;-66
2022/01/06 09:35:58;;;;;;;11.23;4.95;;;16.50;99.90;;;;;;5086243;28;20042;-64
2022/01/06 09:38:26;;;;;;;8.98;3.40;;;16.50;99.90;;;;;;5100891;28;20044;-66
2022/01/06 09:40:53;;;;;;;11.95;3.63;;;16.50;99.90;;;;;;5074588;28;20044;-66
2022/01/06 09:43:25;;;;;;;6.72;3.95;;;16.60;99.90;;;;;;5071594;28;20058;-67
2022/01/06 09:45:53;;;;;;;15.50;6.03;;;16.70;99.90;;;;;;5088195;28;20046;-67
2022/01/06 09:48:22;;;;;;;11.70;4.38;;;16.70;99.90;;;;;;5099949;28;20394;-65
2022/01/06 09:50:50;;;;;;;18.38;4.18;;;16.70;99.90;;;;;;5074849;28;20080;-65
2022/01/06 09:53:20;;;;;;;7.50;4.53;;;16.80;99.90;;;;;;5104495;28;20104;-65
2022/01/06 09:55:48;;;;;;;12.13;5.40;;;16.80;99.90;;;;;;5077036;28;20432;-66
2022/01/06 09:58:24;;;;;;;8.88;4.85;;;16.90;99.90;;;;;;5092820;28;20443;-67
2022/01/06 10:00:55;;;;;;;12.70;4.80;;;17.00;99.90;;;;;;5090220;28;20051;-67
2022/01/06 10:03:38;;;;;;;12.52;6.05;;;17.20;99.90;;;;;;5063569;28;20052;-67
2022/01/06 10:06:14;;;;;;;18.55;6.90;;;17.30;99.90;;;;;;5104005;28;20044;-68
2022/01/06 10:08:50;;;;;;;11.18;5.78;;;17.30;99.90;;;;;;5112021;28;20040;-67
2022/01/06 10:11:21;;;;;;;17.88;4.55;;;17.20;99.90;;;;;;5112942;28;20062;-66
2022/01/06 10:13:58;;;;;;;8.40;3.90;;;17.20;99.90;;;;;;5113767;28;20047;-66
2022/01/06 10:16:31;;;;;;;13.82;6.10;;;17.10;99.90;;;;;;5095365;28;20093;-66
2022/01/06 10:19:05;;;;;;;19.63;5.55;;;17.10;99.90;;;;;;5093430;28;20043;-67
2022/01/06 10:21:45;;;;;;;11.07;3.90;;;17.30;99.90;;;;;;5111662;28;20378;-67
2022/01/06 10:24:22;;;;;;;8.60;3.97;;;17.30;99.90;;;;;;5093182;28;20040;-67
2022/01/06 10:27:09;;;;;;;11.90;4.50;;;17.40;99.90;;;;;;5076613;28;20394;-67
2022/01/06 10:29:49;;;;;;;10.85;4.65;;;17.40;99.90;;;;;;5112017;28;20433;-67
2022/01/06 10:32:26;;;;;;;20.60;4.60;;;17.50;99.90;;;;;;5093994;28;20482;-67
2022/01/06 10:34:55;;;;;;;9.93;4.68;;;17.40;99.90;;;;;;5112613;28;20040;-67
2022/01/06 10:37:35;;;;;;;11.73;4.65;;;17.40;99.90;;;;;;5094633;28;20566;-67
2022/01/06 10:40:10;;;;;;;13.60;4.30;;;17.40;99.90;;;;;;5097920;28;20043;-67
2022/01/06 10:42:41;;;;;;;19.20;7.43;;;17.40;99.90;;;;;;5117446;28;20375;-67
2022/01/06 10:45:14;;;;;;;12.93;5.55;;;17.20;99.90;;;;;;5098971;28;20104;-67
2022/01/06 10:47:57;;;;;;;8.82;4.05;;;17.30;99.90;;;;;;5098703;28;20039;-67
2022/01/06 10:50:27;;;;;;;14.93;5.85;;;17.30;99.90;;;;;;5098056;28;20063;-67
2022/01/06 10:53:11;;;;;;;17.27;5.43;;;17.40;99.90;;;;;;5082302;28;20043;-67
2022/01/06 10:55:43;;;;;;;14.55;5.00;;;17.40;99.90;;;;;;5099030;28;20096;-68
2022/01/06 10:58:12;;;;;;;15.57;5.78;;;17.40;99.90;;;;;;5098650;28;20042;-67
2022/01/06 11:00:42;;;;;;;11.85;5.28;;;17.40;99.90;;;;;;5098791;28;20039;-67
2022/01/06 11:03:13;;;;;;;11.38;6.03;;;17.50;99.90;;;;;;5098732;28;20039;-67
2022/01/06 11:05:50;;;;;;;10.55;3.78;;;17.40;99.90;;;;;;5098494;28;20039;-67
2022/01/06 11:08:21;;;;;;;11.30;3.78;;;17.20;99.90;;;;;;5081471;28;20051;-67
2022/01/06 11:11:02;;;;;;;8.10;4.05;;;17.10;99.90;;;;;;5098438;28;20122;-67
2022/01/06 11:13:45;;;;;;;11.60;3.90;;;17.00;99.90;;;;;;5116413;28;20062;-67
2022/01/06 11:16:15;;;;;;;7.65;4.28;;;16.80;99.90;;;;;;5116700;28;20050;-67
2022/01/06 11:18:54;;;;;;;13.60;3.08;;;16.70;99.90;;;;;;5098584;28;20100;-67
2022/01/06 11:21:45;;;;;;;11.00;4.68;;;16.70;99.90;;;;;;5099631;28;20424;-67
2022/01/06 11:24:24;;;;;;;13.18;3.60;;;16.70;99.90;;;;;;5100721;28;20039;-67
2022/01/06 11:27:05;;;;;;;9.35;4.03;;;16.70;99.90;;;;;;5070161;28;20437;-67
2022/01/06 11:29:36;;;;;;;11.45;4.10;;;17.00;99.90;;;;;;5102631;28;20093;-67
2022/01/06 11:32:16;;;;;;;12.48;4.60;;;17.10;99.90;;;;;;5103209;28;20031;-67
2022/01/06 11:34:44;;;;;;;14.90;8.75;;;17.20;99.90;;;;;;5089369;28;20132;-67
2022/01/06 11:37:14;;;;;;;13.35;4.97;;;17.10;99.90;;;;;;5099860;28;20474;-67
2022/01/06 11:39:42;;;;;;;10.80;4.35;;;17.00;99.90;;;;;;5105011;28;20131;-67
2022/01/06 11:42:18;;;;;;;11.23;6.22;;;16.90;99.90;;;;;;5102285;28;20494;-67
2022/01/06 11:44:54;;;;;;;15.98;4.40;;;16.90;99.90;;;;;;5085478;28;20063;-68
2022/01/06 11:47:37;;;;;;;8.43;3.30;;;17.00;99.90;;;;;;5104837;28;20486;-68
2022/01/06 11:50:24;;;;;;;11.85;3.83;;;17.00;99.90;;;;;;5075456;28;20048;-68
2022/01/06 11:52:59;;;;;;;10.88;3.20;;;17.00;99.90;;;;;;5078334;28;20067;-67
2022/01/06 11:55:36;;;;;;;7.70;3.50;;;16.90;99.90;;;;;;5096808;28;20036;-67
2022/01/06 11:58:19;;;;;;;12.95;7.60;;;16.80;99.90;;;;;;5085395;28;20093;-67
2022/01/06 12:01:01;;;;;;;11.95;6.57;;;16.80;99.90;;;;;;5075290;28;20579;-67
2022/01/06 12:03:37;;;;;;;13.68;5.47;;;16.80;99.90;;;;;;5060133;28;20055;-67
2022/01/06 12:06:06;;;;;;;14.38;6.18;;;16.70;99.90;;;;;;5059638;28;20064;-67
2022/01/06 12:08:40;;;;;;;13.98;4.50;;;16.70;99.90;;;;;;5077027;28;20142;-67
2022/01/06 12:11:27;;;;;;;19.02;4.40;;;16.70;99.90;;;;;;5094661;28;20036;-67
2022/01/06 12:13:56;;;;;;;7.63;3.40;;;16.70;99.90;;;;;;5094634;28;20059;-67
2022/01/06 12:16:29;;;;;;;8.15;3.92;;;16.80;99.90;;;;;;5076710;28;20122;-67
2022/01/06 12:18:58;;;;;;;11.45;3.95;;;16.70;99.90;;;;;;5077077;28;20040;-67
2022/01/06 12:21:26;;;;;;;8.02;4.40;;;16.70;99.90;;;;;;5060394;28;20134;-67
2022/01/06 12:24:06;;;;;;;13.73;5.63;;;16.60;99.90;;;;;;5060018;28;20120;-67
2022/01/06 12:26:35;;;;;;;11.85;4.40;;;16.60;99.90;;;;;;5059601;28;20055;-67
2022/01/06 12:29:06;;;;;;;9.02;4.15;;;16.60;99.90;;;;;;5059433;28;20044;-67
2022/01/06 12:31:34;;;;;;;8.65;4.68;;;16.50;99.90;;;;;;5076762;28;20070;-67
2022/01/06 12:34:03;;;;;;;21.27;6.22;;;16.50;99.90;;;;;;5060091;28;20143;-67
2022/01/06 12:36:37;;;;;;;9.48;4.82;;;16.50;99.90;;;;;;5060000;28;20044;-67
2022/01/06 12:39:12;;;;;;;11.93;4.30;;;16.40;99.90;;;;;;5094470;28;20093;-67
2022/01/06 12:41:40;;;;;;;12.55;4.70;;;16.50;99.90;;;;;;5094482;28;20516;-65
2022/01/06 12:44:10;;;;;;;7.85;4.30;;;16.40;99.90;;;;;;5059552;28;20129;-66
2022/01/06 12:46:41;;;;;;;8.48;4.32;;;16.50;99.90;;;;;;5076150;28;20040;-67
2022/01/06 12:49:10;;;;;;;8.48;3.67;;;16.60;99.90;;;;;;5059367;28;20046;-67
2022/01/06 12:51:44;;;;;;;9.63;6.55;;;16.70;99.90;;;;;;5057355;28;20060;-67
2022/01/06 12:54:18;;;;;;;13.95;5.38;;;16.80;99.90;;;;;;5094252;28;20072;-67
2022/01/06 12:56:49;;;;;;;13.10;4.90;;;16.90;99.90;;;;;;5075989;28;20517;-67
2022/01/06 12:59:23;;;;;;;11.00;5.78;;;17.00;99.90;;;;;;5076289;28;20048;-67